Aberdeen, South Dakota
Current Conditions -  °F | °C
As of 3:53 PM on Friday 24 Oct 2014 (Local Time) from KABR Reporting Station
Clear Clear  
Wind Chill: 79°   Ceiling: Unl
Heat Index: 79°   Visibility: 10mi
Dew Point: 38°   Wind: 13mph
Humidity: 23%   Direction: 290°WNW
Pressure: 29.86"   Gusts: NA
Location:  45.46°N, 98.49°W
Report Text: KABR 242053Z AUTO 29011KT 10SM CLR 26/03 A2986 RMK AO2 SLP113 T02610033 55006
Loading
Personal Weather Stations






























Interactive Weather Map
Tropical Storm Tracking
New forecast layout! Learn more

10-Day Weather Forecast

Advertisements
Track Severe Weather on mobile